sensor_id;sensor_type;location;lat;lon;timestamp;P1;durP1;ratioP1;P2;durP2;ratioP2
8526;SDS011;4301;48.362;8.478;2022-08-19T00:00:30;27.37;;;24.60;;
8526;SDS011;4301;48.362;8.478;2022-08-19T00:02:57;27.70;;;25.07;;
8526;SDS011;4301;48.362;8.478;2022-08-19T00:05:24;28.17;;;25.47;;
8526;SDS011;4301;48.362;8.478;2022-08-19T00:07:52;28.07;;;25.37;;
8526;SDS011;4301;48.362;8.478;2022-08-19T00:10:19;27.83;;;25.13;;
8526;SDS011;4301;48.362;8.478;2022-08-19T00:12:46;27.73;;;24.93;;
8526;SDS011;4301;48.362;8.478;2022-08-19T00:15:14;28.27;;;25.33;;
8526;SDS011;4301;48.362;8.478;2022-08-19T00:17:45;26.10;;;23.60;;
8526;SDS011;4301;48.362;8.478;2022-08-19T00:20:13;26.87;;;24.13;;
8526;SDS011;4301;48.362;8.478;2022-08-19T00:22:42;28.00;;;25.30;;
8526;SDS011;4301;48.362;8.478;2022-08-19T00:25:10;27.83;;;25.03;;
8526;SDS011;4301;48.362;8.478;2022-08-19T00:27:37;28.70;;;25.90;;
8526;SDS011;4301;48.362;8.478;2022-08-19T00:30:05;28.77;;;25.87;;
8526;SDS011;4301;48.362;8.478;2022-08-19T00:32:35;28.73;;;25.93;;
8526;SDS011;4301;48.362;8.478;2022-08-19T00:35:04;30.20;;;27.10;;
8526;SDS011;4301;48.362;8.478;2022-08-19T00:37:32;30.63;;;27.27;;
8526;SDS011;4301;48.362;8.478;2022-08-19T00:40:00;30.73;;;27.47;;
8526;SDS011;4301;48.362;8.478;2022-08-19T00:42:29;30.47;;;27.27;;
8526;SDS011;4301;48.362;8.478;2022-08-19T00:44:56;30.00;;;26.97;;
8526;SDS011;4301;48.362;8.478;2022-08-19T00:47:23;30.20;;;27.20;;
8526;SDS011;4301;48.362;8.478;2022-08-19T00:49:50;29.53;;;26.53;;
8526;SDS011;4301;48.362;8.478;2022-08-19T00:52:22;29.97;;;26.93;;
8526;SDS011;4301;48.362;8.478;2022-08-19T00:54:54;31.57;;;27.43;;
8526;SDS011;4301;48.362;8.478;2022-08-19T00:57:24;31.27;;;27.63;;
8526;SDS011;4301;48.362;8.478;2022-08-19T00:59:54;29.63;;;26.50;;
8526;SDS011;4301;48.362;8.478;2022-08-19T01:02:24;30.67;;;27.17;;
8526;SDS011;4301;48.362;8.478;2022-08-19T01:04:52;29.83;;;26.73;;
8526;SDS011;4301;48.362;8.478;2022-08-19T01:07:19;29.07;;;26.07;;
8526;SDS011;4301;48.362;8.478;2022-08-19T01:09:48;29.67;;;26.53;;
8526;SDS011;4301;48.362;8.478;2022-08-19T01:12:15;28.33;;;25.50;;
8526;SDS011;4301;48.362;8.478;2022-08-19T01:14:42;28.97;;;26.07;;
8526;SDS011;4301;48.362;8.478;2022-08-19T01:17:11;30.23;;;27.07;;
8526;SDS011;4301;48.362;8.478;2022-08-19T01:19:39;31.57;;;27.90;;
8526;SDS011;4301;48.362;8.478;2022-08-19T01:22:08;31.30;;;27.90;;
8526;SDS011;4301;48.362;8.478;2022-08-19T01:24:42;30.40;;;27.23;;
8526;SDS011;4301;48.362;8.478;2022-08-19T01:27:09;32.10;;;28.20;;
8526;SDS011;4301;48.362;8.478;2022-08-19T01:29:37;28.73;;;25.73;;
8526;SDS011;4301;48.362;8.478;2022-08-19T01:32:05;30.40;;;27.17;;
8526;SDS011;4301;48.362;8.478;2022-08-19T01:34:33;30.10;;;26.97;;
8526;SDS011;4301;48.362;8.478;2022-08-19T01:37:01;30.27;;;27.07;;
8526;SDS011;4301;48.362;8.478;2022-08-19T01:39:34;29.40;;;26.20;;
8526;SDS011;4301;48.362;8.478;2022-08-19T01:42:02;30.83;;;27.63;;
8526;SDS011;4301;48.362;8.478;2022-08-19T01:44:31;31.00;;;26.83;;
8526;SDS011;4301;48.362;8.478;2022-08-19T01:46:58;29.67;;;26.57;;
8526;SDS011;4301;48.362;8.478;2022-08-19T01:49:25;30.27;;;27.07;;
8526;SDS011;4301;48.362;8.478;2022-08-19T01:51:52;30.17;;;26.97;;
8526;SDS011;4301;48.362;8.478;2022-08-19T01:54:20;28.83;;;25.93;;
8526;SDS011;4301;48.362;8.478;2022-08-19T01:56:48;28.80;;;25.80;;
8526;SDS011;4301;48.362;8.478;2022-08-19T01:59:17;29.50;;;26.40;;
8526;SDS011;4301;48.362;8.478;2022-08-19T02:01:46;30.63;;;26.07;;
8526;SDS011;4301;48.362;8.478;2022-08-19T02:04:14;29.27;;;26.13;;
8526;SDS011;4301;48.362;8.478;2022-08-19T02:06:41;28.80;;;25.63;;
8526;SDS011;4301;48.362;8.478;2022-08-19T02:09:08;29.23;;;25.93;;
8526;SDS011;4301;48.362;8.478;2022-08-19T02:11:36;28.77;;;25.77;;
8526;SDS011;4301;48.362;8.478;2022-08-19T02:14:05;29.77;;;25.30;;
8526;SDS011;4301;48.362;8.478;2022-08-19T02:16:35;28.90;;;25.83;;
8526;SDS011;4301;48.362;8.478;2022-08-19T02:19:03;31.37;;;27.33;;
8526;SDS011;4301;48.362;8.478;2022-08-19T02:21:30;32.00;;;28.40;;
8526;SDS011;4301;48.362;8.478;2022-08-19T02:23:58;29.53;;;26.43;;
8526;SDS011;4301;48.362;8.478;2022-08-19T02:26:25;29.57;;;26.47;;
8526;SDS011;4301;48.362;8.478;2022-08-19T02:28:53;29.63;;;26.03;;
8526;SDS011;4301;48.362;8.478;2022-08-19T02:31:21;29.90;;;26.73;;
8526;SDS011;4301;48.362;8.478;2022-08-19T02:33:50;29.77;;;26.57;;
8526;SDS011;4301;48.362;8.478;2022-08-19T02:36:18;30.53;;;26.30;;
8526;SDS011;4301;48.362;8.478;2022-08-19T02:38:45;34.97;;;27.60;;
8526;SDS011;4301;48.362;8.478;2022-08-19T02:41:13;32.47;;;27.67;;
8526;SDS011;4301;48.362;8.478;2022-08-19T02:43:42;32.33;;;27.80;;
8526;SDS011;4301;48.362;8.478;2022-08-19T02:46:13;32.33;;;28.47;;
8526;SDS011;4301;48.362;8.478;2022-08-19T02:48:46;32.80;;;27.57;;
8526;SDS011;4301;48.362;8.478;2022-08-19T02:51:19;33.80;;;28.40;;
8526;SDS011;4301;48.362;8.478;2022-08-19T02:53:48;30.93;;;26.53;;
8526;SDS011;4301;48.362;8.478;2022-08-19T02:56:15;31.30;;;26.70;;
8526;SDS011;4301;48.362;8.478;2022-08-19T02:58:42;29.10;;;25.90;;
8526;SDS011;4301;48.362;8.478;2022-08-19T03:01:09;32.83;;;27.27;;
8526;SDS011;4301;48.362;8.478;2022-08-19T03:03:37;35.87;;;27.80;;
8526;SDS011;4301;48.362;8.478;2022-08-19T03:06:06;35.27;;;27.97;;
8526;SDS011;4301;48.362;8.478;2022-08-19T03:08:36;36.03;;;27.70;;
8526;SDS011;4301;48.362;8.478;2022-08-19T03:11:05;34.97;;;27.90;;
8526;SDS011;4301;48.362;8.478;2022-08-19T03:13:32;33.27;;;27.13;;
8526;SDS011;4301;48.362;8.478;2022-08-19T03:15:59;31.60;;;27.30;;
8526;SDS011;4301;48.362;8.478;2022-08-19T03:18:30;34.47;;;27.43;;
8526;SDS011;4301;48.362;8.478;2022-08-19T03:20:57;34.70;;;27.17;;
8526;SDS011;4301;48.362;8.478;2022-08-19T03:23:24;32.93;;;28.50;;
8526;SDS011;4301;48.362;8.478;2022-08-19T03:25:52;33.57;;;28.10;;
8526;SDS011;4301;48.362;8.478;2022-08-19T03:28:20;35.73;;;27.87;;
8526;SDS011;4301;48.362;8.478;2022-08-19T03:30:57;31.63;;;27.43;;
8526;SDS011;4301;48.362;8.478;2022-08-19T03:33:26;33.40;;;28.20;;
8526;SDS011;4301;48.362;8.478;2022-08-19T03:36:00;32.70;;;28.13;;
8526;SDS011;4301;48.362;8.478;2022-08-19T03:38:30;36.73;;;28.77;;
8526;SDS011;4301;48.362;8.478;2022-08-19T03:41:03;35.10;;;30.77;;
8526;SDS011;4301;48.362;8.478;2022-08-19T03:43:31;38.13;;;28.70;;
8526;SDS011;4301;48.362;8.478;2022-08-19T03:46:00;30.70;;;26.37;;
8526;SDS011;4301;48.362;8.478;2022-08-19T03:48:29;32.23;;;27.77;;
8526;SDS011;4301;48.362;8.478;2022-08-19T03:50:56;31.53;;;26.40;;
8526;SDS011;4301;48.362;8.478;2022-08-19T03:56:34;34.87;;;26.07;;
8526;SDS011;4301;48.362;8.478;2022-08-19T03:59:03;30.13;;;26.33;;
8526;SDS011;4301;48.362;8.478;2022-08-19T04:01:31;33.57;;;28.10;;
8526;SDS011;4301;48.362;8.478;2022-08-19T04:03:58;30.47;;;27.17;;
8526;SDS011;4301;48.362;8.478;2022-08-19T04:06:27;30.93;;;27.63;;
8526;SDS011;4301;48.362;8.478;2022-08-19T04:08:56;31.57;;;26.87;;
8526;SDS011;4301;48.362;8.478;2022-08-19T04:11:25;31.20;;;26.83;;
8526;SDS011;4301;48.362;8.478;2022-08-19T04:13:55;32.60;;;28.23;;
8526;SDS011;4301;48.362;8.478;2022-08-19T04:16:24;31.60;;;26.37;;
8526;SDS011;4301;48.362;8.478;2022-08-19T04:18:53;30.77;;;27.17;;
8526;SDS011;4301;48.362;8.478;2022-08-19T04:21:21;32.37;;;27.80;;
8526;SDS011;4301;48.362;8.478;2022-08-19T04:23:50;36.07;;;30.97;;
8526;SDS011;4301;48.362;8.478;2022-08-19T04:26:18;31.67;;;28.23;;
8526;SDS011;4301;48.362;8.478;2022-08-19T04:28:46;35.13;;;29.47;;
8526;SDS011;4301;48.362;8.478;2022-08-19T04:31:16;33.13;;;29.40;;
8526;SDS011;4301;48.362;8.478;2022-08-19T04:33:44;32.40;;;28.87;;
8526;SDS011;4301;48.362;8.478;2022-08-19T04:36:15;31.43;;;26.77;;
8526;SDS011;4301;48.362;8.478;2022-08-19T04:38:45;32.20;;;28.10;;
8526;SDS011;4301;48.362;8.478;2022-08-19T04:41:13;32.87;;;28.73;;
8526;SDS011;4301;48.362;8.478;2022-08-19T04:43:58;31.53;;;27.43;;
8526;SDS011;4301;48.362;8.478;2022-08-19T04:46:26;32.47;;;28.97;;
8526;SDS011;4301;48.362;8.478;2022-08-19T04:48:56;33.70;;;29.37;;
8526;SDS011;4301;48.362;8.478;2022-08-19T04:51:23;34.67;;;28.87;;
8526;SDS011;4301;48.362;8.478;2022-08-19T04:53:51;32.13;;;28.83;;
8526;SDS011;4301;48.362;8.478;2022-08-19T04:56:19;31.47;;;28.07;;
8526;SDS011;4301;48.362;8.478;2022-08-19T04:58:47;32.60;;;28.70;;
8526;SDS011;4301;48.362;8.478;2022-08-19T05:01:17;33.75;;;30.25;;
8526;SDS011;4301;48.362;8.478;2022-08-19T05:03:46;32.17;;;28.77;;
8526;SDS011;4301;48.362;8.478;2022-08-19T05:06:15;31.97;;;28.57;;
8526;SDS011;4301;48.362;8.478;2022-08-19T05:08:43;33.17;;;28.77;;
8526;SDS011;4301;48.362;8.478;2022-08-19T05:11:12;31.23;;;27.93;;
8526;SDS011;4301;48.362;8.478;2022-08-19T05:13:41;32.30;;;28.80;;
8526;SDS011;4301;48.362;8.478;2022-08-19T05:16:09;32.93;;;29.37;;
8526;SDS011;4301;48.362;8.478;2022-08-19T05:18:37;30.90;;;27.63;;
8526;SDS011;4301;48.362;8.478;2022-08-19T05:21:22;31.93;;;28.07;;
8526;SDS011;4301;48.362;8.478;2022-08-19T05:24:07;33.23;;;28.87;;
8526;SDS011;4301;48.362;8.478;2022-08-19T05:26:34;37.77;;;30.03;;
8526;SDS011;4301;48.362;8.478;2022-08-19T05:29:02;33.13;;;29.07;;
8526;SDS011;4301;48.362;8.478;2022-08-19T05:31:29;36.15;;;32.15;;
8526;SDS011;4301;48.362;8.478;2022-08-19T05:33:56;29.73;;;26.63;;
8526;SDS011;4301;48.362;8.478;2022-08-19T05:36:25;30.53;;;25.83;;
8526;SDS011;4301;48.362;8.478;2022-08-19T05:38:52;28.67;;;25.77;;
8526;SDS011;4301;48.362;8.478;2022-08-19T05:41:20;29.07;;;26.03;;
8526;SDS011;4301;48.362;8.478;2022-08-19T05:43:50;30.63;;;27.43;;
8526;SDS011;4301;48.362;8.478;2022-08-19T05:46:18;30.30;;;26.80;;
8526;SDS011;4301;48.362;8.478;2022-08-19T05:48:45;31.57;;;28.07;;
8526;SDS011;4301;48.362;8.478;2022-08-19T05:51:13;34.67;;;29.87;;
8526;SDS011;4301;48.362;8.478;2022-08-19T05:53:42;33.67;;;29.00;;
8526;SDS011;4301;48.362;8.478;2022-08-19T05:56:10;31.00;;;27.53;;
8526;SDS011;4301;48.362;8.478;2022-08-19T05:58:39;27.90;;;24.90;;
8526;SDS011;4301;48.362;8.478;2022-08-19T06:01:09;27.70;;;24.93;;
8526;SDS011;4301;48.362;8.478;2022-08-19T06:03:38;29.30;;;26.30;;
8526;SDS011;4301;48.362;8.478;2022-08-19T06:06:06;31.07;;;27.70;;
8526;SDS011;4301;48.362;8.478;2022-08-19T06:08:34;31.23;;;27.80;;
8526;SDS011;4301;48.362;8.478;2022-08-19T06:11:15;36.40;;;31.03;;
8526;SDS011;4301;48.362;8.478;2022-08-19T06:13:44;36.87;;;30.83;;
8526;SDS011;4301;48.362;8.478;2022-08-19T06:16:16;32.93;;;29.43;;
8526;SDS011;4301;48.362;8.478;2022-08-19T06:18:47;37.03;;;32.17;;
8526;SDS011;4301;48.362;8.478;2022-08-19T06:21:16;34.37;;;29.80;;
8526;SDS011;4301;48.362;8.478;2022-08-19T06:23:44;37.40;;;31.17;;
8526;SDS011;4301;48.362;8.478;2022-08-19T06:26:14;35.30;;;30.93;;
8526;SDS011;4301;48.362;8.478;2022-08-19T06:28:42;36.73;;;30.30;;
8526;SDS011;4301;48.362;8.478;2022-08-19T06:31:11;35.17;;;29.77;;
8526;SDS011;4301;48.362;8.478;2022-08-19T06:33:39;35.10;;;30.13;;
8526;SDS011;4301;48.362;8.478;2022-08-19T06:36:07;34.53;;;29.70;;
8526;SDS011;4301;48.362;8.478;2022-08-19T06:38:41;32.93;;;29.27;;
8526;SDS011;4301;48.362;8.478;2022-08-19T06:41:08;37.30;;;30.07;;
8526;SDS011;4301;48.362;8.478;2022-08-19T06:43:37;34.70;;;29.70;;
8526;SDS011;4301;48.362;8.478;2022-08-19T06:46:09;37.90;;;31.20;;
8526;SDS011;4301;48.362;8.478;2022-08-19T06:48:37;33.53;;;28.87;;
8526;SDS011;4301;48.362;8.478;2022-08-19T06:51:04;32.83;;;29.03;;
8526;SDS011;4301;48.362;8.478;2022-08-19T06:53:31;35.33;;;29.97;;
8526;SDS011;4301;48.362;8.478;2022-08-19T06:55:58;34.70;;;29.53;;
8526;SDS011;4301;48.362;8.478;2022-08-19T06:58:27;33.63;;;28.97;;
8526;SDS011;4301;48.362;8.478;2022-08-19T07:00:59;33.27;;;29.37;;
8526;SDS011;4301;48.362;8.478;2022-08-19T07:03:28;31.70;;;27.97;;
8526;SDS011;4301;48.362;8.478;2022-08-19T07:05:56;31.43;;;28.00;;
8526;SDS011;4301;48.362;8.478;2022-08-19T07:08:24;32.43;;;28.80;;
8526;SDS011;4301;48.362;8.478;2022-08-19T07:10:52;31.17;;;27.77;;
8526;SDS011;4301;48.362;8.478;2022-08-19T07:13:19;36.33;;;30.20;;
8526;SDS011;4301;48.362;8.478;2022-08-19T07:15:47;36.60;;;30.20;;
8526;SDS011;4301;48.362;8.478;2022-08-19T07:18:17;34.13;;;29.63;;
8526;SDS011;4301;48.362;8.478;2022-08-19T07:20:46;34.90;;;29.90;;
8526;SDS011;4301;48.362;8.478;2022-08-19T07:23:13;35.40;;;29.27;;
8526;SDS011;4301;48.362;8.478;2022-08-19T07:25:41;33.40;;;29.20;;
8526;SDS011;4301;48.362;8.478;2022-08-19T07:28:08;34.43;;;29.77;;
8526;SDS011;4301;48.362;8.478;2022-08-19T07:30:38;33.33;;;28.63;;
8526;SDS011;4301;48.362;8.478;2022-08-19T07:33:05;31.40;;;27.80;;
8526;SDS011;4301;48.362;8.478;2022-08-19T07:35:34;32.13;;;27.87;;
8526;SDS011;4301;48.362;8.478;2022-08-19T07:38:01;35.37;;;29.63;;
8526;SDS011;4301;48.362;8.478;2022-08-19T07:40:29;34.07;;;28.83;;
8526;SDS011;4301;48.362;8.478;2022-08-19T07:42:56;30.57;;;27.23;;
8526;SDS011;4301;48.362;8.478;2022-08-19T07:45:23;30.37;;;27.00;;
8526;SDS011;4301;48.362;8.478;2022-08-19T07:47:50;31.00;;;27.47;;
8526;SDS011;4301;48.362;8.478;2022-08-19T07:50:18;31.57;;;27.37;;
8526;SDS011;4301;48.362;8.478;2022-08-19T07:52:48;32.03;;;27.00;;
8526;SDS011;4301;48.362;8.478;2022-08-19T07:55:16;29.60;;;26.40;;
8526;SDS011;4301;48.362;8.478;2022-08-19T07:57:44;33.03;;;27.47;;
8526;SDS011;4301;48.362;8.478;2022-08-19T08:00:12;29.07;;;25.90;;
8526;SDS011;4301;48.362;8.478;2022-08-19T08:02:40;31.27;;;27.10;;
8526;SDS011;4301;48.362;8.478;2022-08-19T08:05:08;28.47;;;25.23;;
8526;SDS011;4301;48.362;8.478;2022-08-19T08:07:54;32.13;;;26.47;;
8526;SDS011;4301;48.362;8.478;2022-08-19T08:10:38;29.07;;;25.97;;
8526;SDS011;4301;48.362;8.478;2022-08-19T08:13:05;29.40;;;25.97;;
8526;SDS011;4301;48.362;8.478;2022-08-19T08:15:32;28.03;;;24.87;;
8526;SDS011;4301;48.362;8.478;2022-08-19T08:17:59;27.80;;;24.77;;
8526;SDS011;4301;48.362;8.478;2022-08-19T08:20:27;29.97;;;25.67;;
8526;SDS011;4301;48.362;8.478;2022-08-19T08:22:55;30.87;;;25.67;;
8526;SDS011;4301;48.362;8.478;2022-08-19T08:25:40;27.63;;;24.70;;
8526;SDS011;4301;48.362;8.478;2022-08-19T08:28:07;27.43;;;24.20;;
8526;SDS011;4301;48.362;8.478;2022-08-19T08:30:34;32.27;;;25.30;;
8526;SDS011;4301;48.362;8.478;2022-08-19T08:33:04;28.63;;;25.07;;
8526;SDS011;4301;48.362;8.478;2022-08-19T08:35:31;27.57;;;24.67;;
8526;SDS011;4301;48.362;8.478;2022-08-19T08:38:01;30.23;;;25.50;;
8526;SDS011;4301;48.362;8.478;2022-08-19T08:40:30;27.57;;;24.57;;
8526;SDS011;4301;48.362;8.478;2022-08-19T08:43:06;27.07;;;24.00;;
8526;SDS011;4301;48.362;8.478;2022-08-19T08:45:45;27.50;;;24.50;;
8526;SDS011;4301;48.362;8.478;2022-08-19T08:48:18;25.80;;;22.93;;
8526;SDS011;4301;48.362;8.478;2022-08-19T08:50:49;25.60;;;22.87;;
8526;SDS011;4301;48.362;8.478;2022-08-19T08:53:22;26.23;;;23.43;;
8526;SDS011;4301;48.362;8.478;2022-08-19T08:55:50;25.63;;;22.97;;
8526;SDS011;4301;48.362;8.478;2022-08-19T08:58:17;25.47;;;22.70;;
8526;SDS011;4301;48.362;8.478;2022-08-19T09:00:52;25.60;;;22.77;;
8526;SDS011;4301;48.362;8.478;2022-08-19T09:03:20;24.87;;;22.03;;
8526;SDS011;4301;48.362;8.478;2022-08-19T09:05:52;25.00;;;22.27;;
8526;SDS011;4301;48.362;8.478;2022-08-19T09:08:29;24.90;;;22.07;;
8526;SDS011;4301;48.362;8.478;2022-08-19T09:11:06;24.67;;;21.17;;
8526;SDS011;4301;48.362;8.478;2022-08-19T09:13:36;23.33;;;20.73;;
8526;SDS011;4301;48.362;8.478;2022-08-19T09:16:11;26.63;;;21.23;;
8526;SDS011;4301;48.362;8.478;2022-08-19T09:18:42;22.87;;;20.47;;
8526;SDS011;4301;48.362;8.478;2022-08-19T09:21:12;22.93;;;20.50;;
8526;SDS011;4301;48.362;8.478;2022-08-19T09:23:41;22.00;;;19.73;;
8526;SDS011;4301;48.362;8.478;2022-08-19T09:26:09;22.10;;;19.67;;
8526;SDS011;4301;48.362;8.478;2022-08-19T09:28:38;21.37;;;18.87;;
8526;SDS011;4301;48.362;8.478;2022-08-19T09:31:07;24.73;;;19.00;;
8526;SDS011;4301;48.362;8.478;2022-08-19T09:33:34;20.57;;;18.47;;
8526;SDS011;4301;48.362;8.478;2022-08-19T09:36:02;20.90;;;18.80;;
8526;SDS011;4301;48.362;8.478;2022-08-19T09:38:32;20.47;;;18.43;;
8526;SDS011;4301;48.362;8.478;2022-08-19T09:41:04;19.97;;;18.07;;
8526;SDS011;4301;48.362;8.478;2022-08-19T09:43:32;20.43;;;18.37;;
8526;SDS011;4301;48.362;8.478;2022-08-19T09:46:01;21.70;;;19.50;;
8526;SDS011;4301;48.362;8.478;2022-08-19T09:48:30;21.37;;;19.23;;
8526;SDS011;4301;48.362;8.478;2022-08-19T09:51:02;25.90;;;23.20;;
8526;SDS011;4301;48.362;8.478;2022-08-19T09:53:30;25.63;;;23.13;;
8526;SDS011;4301;48.362;8.478;2022-08-19T09:55:57;27.17;;;24.47;;
8526;SDS011;4301;48.362;8.478;2022-08-19T09:58:25;27.93;;;25.13;;
8526;SDS011;4301;48.362;8.478;2022-08-19T10:00:54;26.93;;;24.23;;
8526;SDS011;4301;48.362;8.478;2022-08-19T10:03:22;28.43;;;24.77;;
8526;SDS011;4301;48.362;8.478;2022-08-19T10:05:49;28.13;;;25.33;;
8526;SDS011;4301;48.362;8.478;2022-08-19T10:08:17;26.93;;;24.23;;
8526;SDS011;4301;48.362;8.478;2022-08-19T10:10:45;26.43;;;23.67;;
8526;SDS011;4301;48.362;8.478;2022-08-19T10:13:14;26.40;;;23.60;;
8526;SDS011;4301;48.362;8.478;2022-08-19T10:15:46;26.40;;;23.70;;
8526;SDS011;4301;48.362;8.478;2022-08-19T10:18:16;26.87;;;24.17;;
8526;SDS011;4301;48.362;8.478;2022-08-19T10:20:45;24.60;;;22.17;;
8526;SDS011;4301;48.362;8.478;2022-08-19T10:23:13;25.43;;;22.93;;
8526;SDS011;4301;48.362;8.478;2022-08-19T10:25:40;23.77;;;21.67;;
8526;SDS011;4301;48.362;8.478;2022-08-19T10:28:07;24.93;;;22.53;;
8526;SDS011;4301;48.362;8.478;2022-08-19T10:30:37;24.13;;;21.73;;
8526;SDS011;4301;48.362;8.478;2022-08-19T10:33:06;25.20;;;21.30;;
8526;SDS011;4301;48.362;8.478;2022-08-19T10:35:33;21.73;;;19.63;;
8526;SDS011;4301;48.362;8.478;2022-08-19T10:38:01;22.13;;;19.93;;
8526;SDS011;4301;48.362;8.478;2022-08-19T10:40:28;23.20;;;20.90;;
8526;SDS011;4301;48.362;8.478;2022-08-19T10:42:55;23.47;;;20.07;;
8526;SDS011;4301;48.362;8.478;2022-08-19T10:45:22;19.70;;;17.80;;
8526;SDS011;4301;48.362;8.478;2022-08-19T10:47:51;18.67;;;16.83;;
8526;SDS011;4301;48.362;8.478;2022-08-19T10:50:20;17.33;;;15.80;;
8526;SDS011;4301;48.362;8.478;2022-08-19T10:53:05;16.60;;;15.10;;
8526;SDS011;4301;48.362;8.478;2022-08-19T10:55:34;16.67;;;15.07;;
8526;SDS011;4301;48.362;8.478;2022-08-19T10:58:20;15.80;;;14.40;;
8526;SDS011;4301;48.362;8.478;2022-08-19T11:00:53;15.75;;;14.35;;
8526;SDS011;4301;48.362;8.478;2022-08-19T11:03:22;15.85;;;14.45;;
8526;SDS011;4301;48.362;8.478;2022-08-19T11:05:58;15.95;;;14.55;;
8526;SDS011;4301;48.362;8.478;2022-08-19T11:08:26;16.00;;;14.50;;
8526;SDS011;4301;48.362;8.478;2022-08-19T11:10:53;14.57;;;13.38;;
8526;SDS011;4301;48.362;8.478;2022-08-19T11:13:22;15.20;;;14.00;;
8526;SDS011;4301;48.362;8.478;2022-08-19T11:15:56;16.43;;;14.83;;
8526;SDS011;4301;48.362;8.478;2022-08-19T11:18:24;16.40;;;14.90;;
8526;SDS011;4301;48.362;8.478;2022-08-19T11:20:51;15.43;;;14.03;;
8526;SDS011;4301;48.362;8.478;2022-08-19T11:23:20;14.80;;;13.50;;
8526;SDS011;4301;48.362;8.478;2022-08-19T11:25:47;16.83;;;15.15;;
8526;SDS011;4301;48.362;8.478;2022-08-19T11:28:15;16.42;;;14.98;;
8526;SDS011;4301;48.362;8.478;2022-08-19T11:30:45;16.33;;;14.90;;
8526;SDS011;4301;48.362;8.478;2022-08-19T11:33:11;18.07;;;14.83;;
8526;SDS011;4301;48.362;8.478;2022-08-19T11:35:39;16.52;;;15.13;;
8526;SDS011;4301;48.362;8.478;2022-08-19T11:38:06;17.20;;;15.65;;
8526;SDS011;4301;48.362;8.478;2022-08-19T11:40:35;16.65;;;15.15;;
8526;SDS011;4301;48.362;8.478;2022-08-19T11:43:02;15.65;;;14.02;;
8526;SDS011;4301;48.362;8.478;2022-08-19T11:45:29;16.10;;;14.60;;
8526;SDS011;4301;48.362;8.478;2022-08-19T11:47:56;15.05;;;13.75;;
8526;SDS011;4301;48.362;8.478;2022-08-19T11:50:23;14.85;;;13.32;;
8526;SDS011;4301;48.362;8.478;2022-08-19T11:52:53;13.18;;;12.07;;
8526;SDS011;4301;48.362;8.478;2022-08-19T11:55:20;13.90;;;12.68;;
8526;SDS011;4301;48.362;8.478;2022-08-19T11:57:49;13.63;;;12.52;;
8526;SDS011;4301;48.362;8.478;2022-08-19T12:00:16;15.48;;;13.98;;
8526;SDS011;4301;48.362;8.478;2022-08-19T12:02:43;14.60;;;13.30;;
8526;SDS011;4301;48.362;8.478;2022-08-19T12:05:10;14.05;;;12.85;;
8526;SDS011;4301;48.362;8.478;2022-08-19T12:07:37;14.88;;;13.30;;
8526;SDS011;4301;48.362;8.478;2022-08-19T12:10:05;15.85;;;13.60;;
8526;SDS011;4301;48.362;8.478;2022-08-19T12:12:32;15.30;;;13.80;;
8526;SDS011;4301;48.362;8.478;2022-08-19T12:15:01;14.48;;;13.07;;
8526;SDS011;4301;48.362;8.478;2022-08-19T12:17:28;13.95;;;12.75;;
8526;SDS011;4301;48.362;8.478;2022-08-19T12:19:55;14.10;;;12.90;;
8526;SDS011;4301;48.362;8.478;2022-08-19T12:22:22;14.45;;;13.18;;
8526;SDS011;4301;48.362;8.478;2022-08-19T12:24:49;14.77;;;13.38;;
8526;SDS011;4301;48.362;8.478;2022-08-19T12:27:18;13.52;;;12.38;;
8526;SDS011;4301;48.362;8.478;2022-08-19T12:29:45;13.30;;;12.00;;
8526;SDS011;4301;48.362;8.478;2022-08-19T12:32:13;13.05;;;11.95;;
8526;SDS011;4301;48.362;8.478;2022-08-19T12:34:41;13.68;;;12.43;;
8526;SDS011;4301;48.362;8.478;2022-08-19T12:37:09;15.15;;;13.52;;
8526;SDS011;4301;48.362;8.478;2022-08-19T12:39:37;15.70;;;14.18;;
8526;SDS011;4301;48.362;8.478;2022-08-19T12:42:07;14.18;;;12.75;;
8526;SDS011;4301;48.362;8.478;2022-08-19T12:44:35;17.52;;;15.75;;
8526;SDS011;4301;48.362;8.478;2022-08-19T12:47:03;15.75;;;14.15;;
8526;SDS011;4301;48.362;8.478;2022-08-19T12:49:33;15.98;;;14.38;;
8526;SDS011;4301;48.362;8.478;2022-08-19T12:52:02;17.60;;;15.90;;
8526;SDS011;4301;48.362;8.478;2022-08-19T12:54:30;18.65;;;16.88;;
8526;SDS011;4301;48.362;8.478;2022-08-19T12:56:57;16.92;;;15.43;;
8526;SDS011;4301;48.362;8.478;2022-08-19T12:59:25;17.08;;;15.48;;
8526;SDS011;4301;48.362;8.478;2022-08-19T13:01:52;17.35;;;15.65;;
8526;SDS011;4301;48.362;8.478;2022-08-19T13:04:19;16.65;;;15.02;;
8526;SDS011;4301;48.362;8.478;2022-08-19T13:06:48;15.00;;;13.60;;
8526;SDS011;4301;48.362;8.478;2022-08-19T13:09:15;14.85;;;13.35;;
8526;SDS011;4301;48.362;8.478;2022-08-19T13:11:42;15.38;;;14.07;;
8526;SDS011;4301;48.362;8.478;2022-08-19T13:14:10;15.77;;;14.48;;
8526;SDS011;4301;48.362;8.478;2022-08-19T13:16:37;13.70;;;12.60;;
8526;SDS011;4301;48.362;8.478;2022-08-19T13:19:05;15.02;;;13.52;;
8526;SDS011;4301;48.362;8.478;2022-08-19T13:21:32;14.48;;;13.10;;
8526;SDS011;4301;48.362;8.478;2022-08-19T13:24:01;14.52;;;13.25;;
8526;SDS011;4301;48.362;8.478;2022-08-19T13:26:28;13.65;;;12.45;;
8526;SDS011;4301;48.362;8.478;2022-08-19T13:28:55;13.80;;;12.50;;
8526;SDS011;4301;48.362;8.478;2022-08-19T13:31:40;12.38;;;11.27;;
8526;SDS011;4301;48.362;8.478;2022-08-19T13:34:26;12.10;;;11.05;;
8526;SDS011;4301;48.362;8.478;2022-08-19T13:36:56;11.68;;;10.32;;
8526;SDS011;4301;48.362;8.478;2022-08-19T13:39:24;11.90;;;10.80;;
8526;SDS011;4301;48.362;8.478;2022-08-19T13:41:52;10.38;;;9.45;;
8526;SDS011;4301;48.362;8.478;2022-08-19T13:44:19;10.02;;;9.10;;
8526;SDS011;4301;48.362;8.478;2022-08-19T13:46:47;10.20;;;9.38;;
8526;SDS011;4301;48.362;8.478;2022-08-19T13:49:16;10.20;;;9.20;;
8526;SDS011;4301;48.362;8.478;2022-08-19T13:51:43;9.07;;;8.18;;
8526;SDS011;4301;48.362;8.478;2022-08-19T13:54:10;9.55;;;8.75;;
8526;SDS011;4301;48.362;8.478;2022-08-19T13:56:41;13.60;;;9.27;;
8526;SDS011;4301;48.362;8.478;2022-08-19T13:59:09;11.20;;;9.38;;
8526;SDS011;4301;48.362;8.478;2022-08-19T14:01:36;10.00;;;9.07;;
8526;SDS011;4301;48.362;8.478;2022-08-19T14:04:04;10.70;;;9.38;;
8526;SDS011;4301;48.362;8.478;2022-08-19T14:06:31;10.45;;;9.10;;
8526;SDS011;4301;48.362;8.478;2022-08-19T14:08:59;9.50;;;8.57;;
8526;SDS011;4301;48.362;8.478;2022-08-19T14:11:27;9.70;;;9.00;;
8526;SDS011;4301;48.362;8.478;2022-08-19T14:13:55;9.77;;;8.90;;
8526;SDS011;4301;48.362;8.478;2022-08-19T14:16:22;9.18;;;8.48;;
8526;SDS011;4301;48.362;8.478;2022-08-19T14:18:49;9.27;;;8.48;;
8526;SDS011;4301;48.362;8.478;2022-08-19T14:21:17;10.00;;;9.20;;
8526;SDS011;4301;48.362;8.478;2022-08-19T14:23:47;9.43;;;8.55;;
8526;SDS011;4301;48.362;8.478;2022-08-19T14:26:15;10.15;;;9.20;;
8526;SDS011;4301;48.362;8.478;2022-08-19T14:28:58;9.80;;;8.52;;
8526;SDS011;4301;48.362;8.478;2022-08-19T14:31:26;8.52;;;7.93;;
8526;SDS011;4301;48.362;8.478;2022-08-19T14:33:53;8.75;;;7.95;;
8526;SDS011;4301;48.362;8.478;2022-08-19T14:36:20;9.65;;;8.75;;
8526;SDS011;4301;48.362;8.478;2022-08-19T14:38:47;9.15;;;8.45;;
8526;SDS011;4301;48.362;8.478;2022-08-19T14:41:16;9.55;;;8.88;;
8526;SDS011;4301;48.362;8.478;2022-08-19T14:43:45;10.57;;;9.70;;
8526;SDS011;4301;48.362;8.478;2022-08-19T14:46:15;9.82;;;8.93;;
8526;SDS011;4301;48.362;8.478;2022-08-19T14:48:44;10.02;;;9.13;;
8526;SDS011;4301;48.362;8.478;2022-08-19T14:51:12;8.85;;;8.10;;
8526;SDS011;4301;48.362;8.478;2022-08-19T14:53:39;8.93;;;8.10;;
8526;SDS011;4301;48.362;8.478;2022-08-19T14:56:07;10.02;;;9.23;;
8526;SDS011;4301;48.362;8.478;2022-08-19T14:58:35;9.63;;;8.73;;
8526;SDS011;4301;48.362;8.478;2022-08-19T15:01:02;12.48;;;9.50;;
8526;SDS011;4301;48.362;8.478;2022-08-19T15:03:31;10.10;;;9.30;;